sensor_id;sensor_type;location;lat;lon;timestamp;temperature;humidity
19862;DHT22;10093;48.148;8.542;2023-03-19T00:01:28;7.10;99.90
19862;DHT22;10093;48.148;8.542;2023-03-19T00:03:54;7.00;99.90
19862;DHT22;10093;48.148;8.542;2023-03-19T00:06:20;6.90;99.90
19862;DHT22;10093;48.148;8.542;2023-03-19T00:08:45;6.90;99.90
19862;DHT22;10093;48.148;8.542;2023-03-19T00:11:12;7.00;99.90
19862;DHT22;10093;48.148;8.542;2023-03-19T00:13:38;6.90;99.90
19862;DHT22;10093;48.148;8.542;2023-03-19T00:16:05;6.60;99.90
19862;DHT22;10093;48.148;8.542;2023-03-19T00:18:32;6.50;99.90
19862;DHT22;10093;48.148;8.542;2023-03-19T00:20:57;6.50;99.90
19862;DHT22;10093;48.148;8.542;2023-03-19T00:23:23;6.50;99.90
19862;DHT22;10093;48.148;8.542;2023-03-19T00:25:49;6.60;99.90
19862;DHT22;10093;48.148;8.542;2023-03-19T00:28:14;6.50;99.90
19862;DHT22;10093;48.148;8.542;2023-03-19T00:30:41;6.50;99.90
19862;DHT22;10093;48.148;8.542;2023-03-19T00:33:09;6.80;99.90
19862;DHT22;10093;48.148;8.542;2023-03-19T00:35:34;6.90;99.90
19862;DHT22;10093;48.148;8.542;2023-03-19T00:38:00;7.00;99.90
19862;DHT22;10093;48.148;8.542;2023-03-19T00:40:26;6.80;99.90
19862;DHT22;10093;48.148;8.542;2023-03-19T00:42:51;6.90;99.90
19862;DHT22;10093;48.148;8.542;2023-03-19T00:45:17;6.80;99.90
19862;DHT22;10093;48.148;8.542;2023-03-19T00:47:43;6.70;99.90
19862;DHT22;10093;48.148;8.542;2023-03-19T00:50:09;6.60;99.90
19862;DHT22;10093;48.148;8.542;2023-03-19T00:52:35;6.80;99.90
19862;DHT22;10093;48.148;8.542;2023-03-19T00:55:00;6.70;99.90
19862;DHT22;10093;48.148;8.542;2023-03-19T00:57:26;6.60;99.90
19862;DHT22;10093;48.148;8.542;2023-03-19T00:59:52;6.70;99.90
19862;DHT22;10093;48.148;8.542;2023-03-19T01:02:17;6.70;99.90
19862;DHT22;10093;48.148;8.542;2023-03-19T01:04:43;6.50;99.90
19862;DHT22;10093;48.148;8.542;2023-03-19T01:07:09;6.70;99.90
19862;DHT22;10093;48.148;8.542;2023-03-19T01:09:35;6.80;99.90
19862;DHT22;10093;48.148;8.542;2023-03-19T01:12:01;6.60;99.90
19862;DHT22;10093;48.148;8.542;2023-03-19T01:14:30;6.50;99.90
19862;DHT22;10093;48.148;8.542;2023-03-19T01:16:55;6.60;99.90
19862;DHT22;10093;48.148;8.542;2023-03-19T01:19:22;6.50;99.90
19862;DHT22;10093;48.148;8.542;2023-03-19T01:21:48;6.50;99.90
19862;DHT22;10093;48.148;8.542;2023-03-19T01:24:14;6.50;99.90
19862;DHT22;10093;48.148;8.542;2023-03-19T01:26:41;6.60;99.90
19862;DHT22;10093;48.148;8.542;2023-03-19T01:29:07;6.60;99.90
19862;DHT22;10093;48.148;8.542;2023-03-19T01:31:33;6.60;99.90
19862;DHT22;10093;48.148;8.542;2023-03-19T01:33:59;6.50;99.90
19862;DHT22;10093;48.148;8.542;2023-03-19T01:36:25;6.40;99.90
19862;DHT22;10093;48.148;8.542;2023-03-19T01:38:50;6.30;99.90
19862;DHT22;10093;48.148;8.542;2023-03-19T01:41:16;6.40;99.90
19862;DHT22;10093;48.148;8.542;2023-03-19T01:43:42;6.40;99.90
19862;DHT22;10093;48.148;8.542;2023-03-19T01:46:21;6.40;99.90
19862;DHT22;10093;48.148;8.542;2023-03-19T01:48:52;6.40;99.90
19862;DHT22;10093;48.148;8.542;2023-03-19T01:51:23;6.50;99.90
19862;DHT22;10093;48.148;8.542;2023-03-19T01:53:54;6.40;99.90
19862;DHT22;10093;48.148;8.542;2023-03-19T01:56:39;6.30;99.90
19862;DHT22;10093;48.148;8.542;2023-03-19T01:59:48;6.50;99.90
19862;DHT22;10093;48.148;8.542;2023-03-19T02:02:32;6.50;99.90
19862;DHT22;10093;48.148;8.542;2023-03-19T02:05:11;6.30;99.90
19862;DHT22;10093;48.148;8.542;2023-03-19T02:07:38;6.30;99.90
19862;DHT22;10093;48.148;8.542;2023-03-19T02:10:08;6.30;99.90
19862;DHT22;10093;48.148;8.542;2023-03-19T02:12:34;6.30;99.90
19862;DHT22;10093;48.148;8.542;2023-03-19T02:15:00;6.30;99.90
19862;DHT22;10093;48.148;8.542;2023-03-19T02:17:27;6.30;99.90
19862;DHT22;10093;48.148;8.542;2023-03-19T02:22:42;6.30;99.90
19862;DHT22;10093;48.148;8.542;2023-03-19T02:25:14;6.20;99.90
19862;DHT22;10093;48.148;8.542;2023-03-19T02:27:42;6.10;99.90
19862;DHT22;10093;48.148;8.542;2023-03-19T02:30:24;6.10;99.90
19862;DHT22;10093;48.148;8.542;2023-03-19T02:32:50;6.20;99.90
19862;DHT22;10093;48.148;8.542;2023-03-19T02:35:16;6.30;99.90
19862;DHT22;10093;48.148;8.542;2023-03-19T02:37:42;6.50;99.90
19862;DHT22;10093;48.148;8.542;2023-03-19T02:40:29;6.20;99.90
19862;DHT22;10093;48.148;8.542;2023-03-19T02:42:56;6.20;99.90
19862;DHT22;10093;48.148;8.542;2023-03-19T02:45:22;6.20;99.90
19862;DHT22;10093;48.148;8.542;2023-03-19T02:47:52;6.20;99.90
19862;DHT22;10093;48.148;8.542;2023-03-19T02:50:17;6.10;99.90
19862;DHT22;10093;48.148;8.542;2023-03-19T02:52:43;6.10;99.90
19862;DHT22;10093;48.148;8.542;2023-03-19T02:55:09;6.20;99.90
19862;DHT22;10093;48.148;8.542;2023-03-19T02:57:34;6.10;99.90
19862;DHT22;10093;48.148;8.542;2023-03-19T03:00:00;6.20;99.90
19862;DHT22;10093;48.148;8.542;2023-03-19T03:02:26;6.10;99.90
19862;DHT22;10093;48.148;8.542;2023-03-19T03:04:52;6.00;99.90
19862;DHT22;10093;48.148;8.542;2023-03-19T03:07:17;6.00;99.90
19862;DHT22;10093;48.148;8.542;2023-03-19T03:09:43;5.90;99.90
19862;DHT22;10093;48.148;8.542;2023-03-19T03:12:09;6.00;99.90
19862;DHT22;10093;48.148;8.542;2023-03-19T03:14:34;6.00;99.90
19862;DHT22;10093;48.148;8.542;2023-03-19T03:17:00;6.00;99.90
19862;DHT22;10093;48.148;8.542;2023-03-19T03:19:26;6.00;99.90
19862;DHT22;10093;48.148;8.542;2023-03-19T03:21:52;6.10;99.90
19862;DHT22;10093;48.148;8.542;2023-03-19T03:24:17;6.10;99.90
19862;DHT22;10093;48.148;8.542;2023-03-19T03:26:43;6.30;99.90
19862;DHT22;10093;48.148;8.542;2023-03-19T03:29:09;6.20;99.90
19862;DHT22;10093;48.148;8.542;2023-03-19T03:31:35;6.10;99.90
19862;DHT22;10093;48.148;8.542;2023-03-19T03:34:02;6.30;99.90
19862;DHT22;10093;48.148;8.542;2023-03-19T03:36:28;6.50;99.90
19862;DHT22;10093;48.148;8.542;2023-03-19T03:38:53;6.40;99.90
19862;DHT22;10093;48.148;8.542;2023-03-19T03:41:20;6.40;99.90
19862;DHT22;10093;48.148;8.542;2023-03-19T03:43:45;6.50;99.90
19862;DHT22;10093;48.148;8.542;2023-03-19T03:46:11;6.50;99.90
19862;DHT22;10093;48.148;8.542;2023-03-19T03:48:37;6.50;99.90
19862;DHT22;10093;48.148;8.542;2023-03-19T03:51:03;6.50;99.90
19862;DHT22;10093;48.148;8.542;2023-03-19T03:53:29;6.60;99.90
19862;DHT22;10093;48.148;8.542;2023-03-19T03:55:54;6.60;99.90
19862;DHT22;10093;48.148;8.542;2023-03-19T03:58:20;6.60;99.90
19862;DHT22;10093;48.148;8.542;2023-03-19T04:00:46;6.40;99.90
19862;DHT22;10093;48.148;8.542;2023-03-19T04:03:13;6.50;99.90
19862;DHT22;10093;48.148;8.542;2023-03-19T04:05:39;6.60;99.90
19862;DHT22;10093;48.148;8.542;2023-03-19T04:08:06;6.50;99.90
19862;DHT22;10093;48.148;8.542;2023-03-19T04:10:32;6.40;99.90
19862;DHT22;10093;48.148;8.542;2023-03-19T04:13:00;6.40;99.90
19862;DHT22;10093;48.148;8.542;2023-03-19T04:15:25;6.30;99.90
19862;DHT22;10093;48.148;8.542;2023-03-19T04:17:51;6.30;99.90
19862;DHT22;10093;48.148;8.542;2023-03-19T04:20:17;6.30;99.90
19862;DHT22;10093;48.148;8.542;2023-03-19T04:22:43;6.30;99.90
19862;DHT22;10093;48.148;8.542;2023-03-19T04:25:09;6.40;99.90
19862;DHT22;10093;48.148;8.542;2023-03-19T04:27:35;6.50;99.90
19862;DHT22;10093;48.148;8.542;2023-03-19T04:30:01;6.70;99.90
19862;DHT22;10093;48.148;8.542;2023-03-19T04:32:27;6.60;99.90
19862;DHT22;10093;48.148;8.542;2023-03-19T04:34:53;6.50;99.90
19862;DHT22;10093;48.148;8.542;2023-03-19T04:37:18;6.60;99.90
19862;DHT22;10093;48.148;8.542;2023-03-19T04:39:44;6.50;99.90
19862;DHT22;10093;48.148;8.542;2023-03-19T04:42:10;6.50;99.90
19862;DHT22;10093;48.148;8.542;2023-03-19T04:44:36;6.60;99.90
19862;DHT22;10093;48.148;8.542;2023-03-19T04:47:02;6.60;99.90
19862;DHT22;10093;48.148;8.542;2023-03-19T04:49:28;6.50;99.90
19862;DHT22;10093;48.148;8.542;2023-03-19T04:51:55;6.70;99.90
19862;DHT22;10093;48.148;8.542;2023-03-19T04:54:22;6.50;99.90
19862;DHT22;10093;48.148;8.542;2023-03-19T04:56:49;6.40;99.90
19862;DHT22;10093;48.148;8.542;2023-03-19T04:59:15;6.40;99.90
19862;DHT22;10093;48.148;8.542;2023-03-19T05:01:40;6.40;99.90
19862;DHT22;10093;48.148;8.542;2023-03-19T05:04:06;6.30;99.90
19862;DHT22;10093;48.148;8.542;2023-03-19T05:06:33;6.40;99.90
19862;DHT22;10093;48.148;8.542;2023-03-19T05:08:58;6.50;99.90
19862;DHT22;10093;48.148;8.542;2023-03-19T05:11:25;6.50;99.90
19862;DHT22;10093;48.148;8.542;2023-03-19T05:13:51;6.40;99.90
19862;DHT22;10093;48.148;8.542;2023-03-19T05:16:16;6.40;99.90
19862;DHT22;10093;48.148;8.542;2023-03-19T05:18:42;6.40;99.90
19862;DHT22;10093;48.148;8.542;2023-03-19T05:21:10;6.30;99.90
19862;DHT22;10093;48.148;8.542;2023-03-19T05:23:36;6.30;99.90
19862;DHT22;10093;48.148;8.542;2023-03-19T05:26:02;6.30;99.90
19862;DHT22;10093;48.148;8.542;2023-03-19T05:28:28;6.40;99.90
19862;DHT22;10093;48.148;8.542;2023-03-19T05:30:54;6.40;99.90
19862;DHT22;10093;48.148;8.542;2023-03-19T05:33:21;6.30;99.90
19862;DHT22;10093;48.148;8.542;2023-03-19T05:35:47;6.30;99.90
19862;DHT22;10093;48.148;8.542;2023-03-19T05:38:13;6.40;99.90
19862;DHT22;10093;48.148;8.542;2023-03-19T05:40:39;6.70;99.90
19862;DHT22;10093;48.148;8.542;2023-03-19T05:43:07;6.80;99.90
19862;DHT22;10093;48.148;8.542;2023-03-19T05:45:33;6.70;99.90
19862;DHT22;10093;48.148;8.542;2023-03-19T05:48:00;6.80;99.90
19862;DHT22;10093;48.148;8.542;2023-03-19T05:50:26;6.70;99.90
19862;DHT22;10093;48.148;8.542;2023-03-19T05:52:51;6.60;99.90
19862;DHT22;10093;48.148;8.542;2023-03-19T05:55:17;6.60;99.90
19862;DHT22;10093;48.148;8.542;2023-03-19T05:57:43;6.70;99.90
19862;DHT22;10093;48.148;8.542;2023-03-19T06:00:09;6.60;99.90
19862;DHT22;10093;48.148;8.542;2023-03-19T06:02:36;6.70;99.90
19862;DHT22;10093;48.148;8.542;2023-03-19T06:05:02;6.70;99.90
19862;DHT22;10093;48.148;8.542;2023-03-19T06:07:27;6.70;99.90
19862;DHT22;10093;48.148;8.542;2023-03-19T06:09:53;6.60;99.90
19862;DHT22;10093;48.148;8.542;2023-03-19T06:12:18;6.60;99.90
19862;DHT22;10093;48.148;8.542;2023-03-19T06:14:44;6.80;99.90
19862;DHT22;10093;48.148;8.542;2023-03-19T06:17:12;6.90;99.90
19862;DHT22;10093;48.148;8.542;2023-03-19T06:19:38;6.70;99.90
19862;DHT22;10093;48.148;8.542;2023-03-19T06:22:03;6.70;99.90
19862;DHT22;10093;48.148;8.542;2023-03-19T06:24:29;6.90;99.90
19862;DHT22;10093;48.148;8.542;2023-03-19T06:26:55;7.10;99.90
19862;DHT22;10093;48.148;8.542;2023-03-19T06:29:21;7.20;99.90
19862;DHT22;10093;48.148;8.542;2023-03-19T06:31:46;7.00;99.90
19862;DHT22;10093;48.148;8.542;2023-03-19T06:34:12;7.00;99.90
19862;DHT22;10093;48.148;8.542;2023-03-19T06:36:38;7.10;99.90
19862;DHT22;10093;48.148;8.542;2023-03-19T06:39:03;7.20;99.90
19862;DHT22;10093;48.148;8.542;2023-03-19T06:41:29;7.10;99.90
19862;DHT22;10093;48.148;8.542;2023-03-19T06:43:55;7.20;99.90
19862;DHT22;10093;48.148;8.542;2023-03-19T06:46:21;7.20;99.90
19862;DHT22;10093;48.148;8.542;2023-03-19T06:48:47;7.50;99.90
19862;DHT22;10093;48.148;8.542;2023-03-19T06:51:13;7.60;99.90
19862;DHT22;10093;48.148;8.542;2023-03-19T06:53:38;7.60;99.90
19862;DHT22;10093;48.148;8.542;2023-03-19T06:56:04;8.00;99.90
19862;DHT22;10093;48.148;8.542;2023-03-19T06:58:30;8.00;99.90
19862;DHT22;10093;48.148;8.542;2023-03-19T07:00:56;8.00;99.90
19862;DHT22;10093;48.148;8.542;2023-03-19T07:03:22;8.00;99.90
19862;DHT22;10093;48.148;8.542;2023-03-19T07:05:51;7.90;99.90
19862;DHT22;10093;48.148;8.542;2023-03-19T07:08:17;7.80;99.90
19862;DHT22;10093;48.148;8.542;2023-03-19T07:10:42;7.90;99.90
19862;DHT22;10093;48.148;8.542;2023-03-19T07:13:08;8.20;99.90
19862;DHT22;10093;48.148;8.542;2023-03-19T07:15:34;8.70;99.90
19862;DHT22;10093;48.148;8.542;2023-03-19T07:18:01;9.60;99.90
19862;DHT22;10093;48.148;8.542;2023-03-19T07:20:26;10.20;99.90
19862;DHT22;10093;48.148;8.542;2023-03-19T07:22:52;10.70;99.90
19862;DHT22;10093;48.148;8.542;2023-03-19T07:25:18;11.50;99.90
19862;DHT22;10093;48.148;8.542;2023-03-19T07:27:44;12.20;99.90
19862;DHT22;10093;48.148;8.542;2023-03-19T07:30:10;12.80;99.90
19862;DHT22;10093;48.148;8.542;2023-03-19T07:32:36;13.30;99.90
19862;DHT22;10093;48.148;8.542;2023-03-19T07:35:06;13.30;99.90
19862;DHT22;10093;48.148;8.542;2023-03-19T07:37:32;13.30;99.90
19862;DHT22;10093;48.148;8.542;2023-03-19T07:39:58;13.10;99.90
19862;DHT22;10093;48.148;8.542;2023-03-19T07:42:24;12.80;99.90
19862;DHT22;10093;48.148;8.542;2023-03-19T07:44:49;12.60;99.90
19862;DHT22;10093;48.148;8.542;2023-03-19T07:47:15;12.60;99.90
19862;DHT22;10093;48.148;8.542;2023-03-19T07:49:41;12.80;99.90
19862;DHT22;10093;48.148;8.542;2023-03-19T07:52:08;12.80;99.90
19862;DHT22;10093;48.148;8.542;2023-03-19T07:54:33;12.70;99.90
19862;DHT22;10093;48.148;8.542;2023-03-19T07:57:00;12.50;99.90
19862;DHT22;10093;48.148;8.542;2023-03-19T07:59:25;12.40;99.90
19862;DHT22;10093;48.148;8.542;2023-03-19T08:01:51;12.10;99.90
19862;DHT22;10093;48.148;8.542;2023-03-19T08:04:17;12.10;99.90
19862;DHT22;10093;48.148;8.542;2023-03-19T08:06:42;12.30;99.90
19862;DHT22;10093;48.148;8.542;2023-03-19T08:09:08;12.60;99.90
19862;DHT22;10093;48.148;8.542;2023-03-19T08:11:34;12.90;99.90
19862;DHT22;10093;48.148;8.542;2023-03-19T08:14:01;13.20;99.90
19862;DHT22;10093;48.148;8.542;2023-03-19T08:16:27;13.30;99.90
19862;DHT22;10093;48.148;8.542;2023-03-19T08:18:52;13.60;99.90
19862;DHT22;10093;48.148;8.542;2023-03-19T08:21:18;13.00;99.90
19862;DHT22;10093;48.148;8.542;2023-03-19T08:23:44;12.50;99.90
19862;DHT22;10093;48.148;8.542;2023-03-19T08:26:10;12.20;99.90
19862;DHT22;10093;48.148;8.542;2023-03-19T08:28:35;11.90;99.90
19862;DHT22;10093;48.148;8.542;2023-03-19T08:31:07;11.80;99.90
19862;DHT22;10093;48.148;8.542;2023-03-19T08:33:33;12.10;99.90
19862;DHT22;10093;48.148;8.542;2023-03-19T08:36:09;11.80;99.90
19862;DHT22;10093;48.148;8.542;2023-03-19T08:38:35;12.30;99.90
19862;DHT22;10093;48.148;8.542;2023-03-19T08:41:01;12.30;99.90
19862;DHT22;10093;48.148;8.542;2023-03-19T08:43:29;12.60;99.90
19862;DHT22;10093;48.148;8.542;2023-03-19T08:45:55;12.80;99.90
19862;DHT22;10093;48.148;8.542;2023-03-19T08:48:21;13.00;99.90
19862;DHT22;10093;48.148;8.542;2023-03-19T08:50:52;12.80;99.90
19862;DHT22;10093;48.148;8.542;2023-03-19T08:53:18;13.00;99.90
19862;DHT22;10093;48.148;8.542;2023-03-19T08:55:44;13.00;99.90
19862;DHT22;10093;48.148;8.542;2023-03-19T08:58:10;12.90;99.90
19862;DHT22;10093;48.148;8.542;2023-03-19T09:00:35;12.80;99.90
19862;DHT22;10093;48.148;8.542;2023-03-19T09:03:01;12.90;99.90
19862;DHT22;10093;48.148;8.542;2023-03-19T09:05:27;13.00;99.90
19862;DHT22;10093;48.148;8.542;2023-03-19T09:07:52;13.20;99.90
19862;DHT22;10093;48.148;8.542;2023-03-19T09:10:18;13.20;99.90
19862;DHT22;10093;48.148;8.542;2023-03-19T09:12:44;14.00;99.90
19862;DHT22;10093;48.148;8.542;2023-03-19T09:15:09;14.10;99.90
19862;DHT22;10093;48.148;8.542;2023-03-19T09:17:35;13.20;99.90
19862;DHT22;10093;48.148;8.542;2023-03-19T09:20:01;12.10;99.90
19862;DHT22;10093;48.148;8.542;2023-03-19T09:22:28;12.80;99.90
19862;DHT22;10093;48.148;8.542;2023-03-19T09:24:53;13.50;99.90
19862;DHT22;10093;48.148;8.542;2023-03-19T09:27:19;14.70;99.90
19862;DHT22;10093;48.148;8.542;2023-03-19T09:29:45;16.10;99.90
19862;DHT22;10093;48.148;8.542;2023-03-19T09:32:11;17.10;99.90
19862;DHT22;10093;48.148;8.542;2023-03-19T09:34:36;16.50;99.90
19862;DHT22;10093;48.148;8.542;2023-03-19T09:37:03;15.80;99.90
19862;DHT22;10093;48.148;8.542;2023-03-19T09:39:28;16.10;99.90
19862;DHT22;10093;48.148;8.542;2023-03-19T09:44:51;16.20;99.90
19862;DHT22;10093;48.148;8.542;2023-03-19T09:49:45;16.10;99.90
19862;DHT22;10093;48.148;8.542;2023-03-19T09:57:46;14.70;99.90
19862;DHT22;10093;48.148;8.542;2023-03-19T10:00:33;14.70;99.90
19862;DHT22;10093;48.148;8.542;2023-03-19T10:03:05;14.30;99.90
19862;DHT22;10093;48.148;8.542;2023-03-19T10:06:08;14.40;99.90
19862;DHT22;10093;48.148;8.542;2023-03-19T10:16:39;14.40;99.90
19862;DHT22;10093;48.148;8.542;2023-03-19T10:19:09;14.50;99.90
19862;DHT22;10093;48.148;8.542;2023-03-19T10:21:42;14.40;99.90
19862;DHT22;10093;48.148;8.542;2023-03-19T10:24:28;14.50;99.90
19862;DHT22;10093;48.148;8.542;2023-03-19T10:27:00;14.60;99.90
19862;DHT22;10093;48.148;8.542;2023-03-19T10:29:27;14.50;99.90
19862;DHT22;10093;48.148;8.542;2023-03-19T10:34:40;14.90;99.90
19862;DHT22;10093;48.148;8.542;2023-03-19T10:37:28;14.50;99.90
19862;DHT22;10093;48.148;8.542;2023-03-19T10:39:56;15.20;99.90
19862;DHT22;10093;48.148;8.542;2023-03-19T10:45:28;16.70;99.90
19862;DHT22;10093;48.148;8.542;2023-03-19T10:47:59;17.40;99.90
19862;DHT22;10093;48.148;8.542;2023-03-19T10:50:59;17.50;99.90
19862;DHT22;10093;48.148;8.542;2023-03-19T10:55:56;16.30;99.90
19862;DHT22;10093;48.148;8.542;2023-03-19T10:58:27;15.80;99.90
19862;DHT22;10093;48.148;8.542;2023-03-19T11:01:11;15.20;99.90
19862;DHT22;10093;48.148;8.542;2023-03-19T11:03:56;14.40;99.90
19862;DHT22;10093;48.148;8.542;2023-03-19T11:06:31;14.00;99.90
19862;DHT22;10093;48.148;8.542;2023-03-19T11:11:48;14.40;99.90
19862;DHT22;10093;48.148;8.542;2023-03-19T11:14:18;14.70;99.90
19862;DHT22;10093;48.148;8.542;2023-03-19T11:16:55;14.80;99.90
19862;DHT22;10093;48.148;8.542;2023-03-19T11:19:28;14.20;99.90
19862;DHT22;10093;48.148;8.542;2023-03-19T11:22:15;14.10;99.90
19862;DHT22;10093;48.148;8.542;2023-03-19T11:24:59;13.90;99.90
19862;DHT22;10093;48.148;8.542;2023-03-19T11:27:34;14.10;99.90
19862;DHT22;10093;48.148;8.542;2023-03-19T11:30:02;13.80;99.90
19862;DHT22;10093;48.148;8.542;2023-03-19T11:35:35;13.70;99.90
19862;DHT22;10093;48.148;8.542;2023-03-19T11:38:03;13.50;99.90
19862;DHT22;10093;48.148;8.542;2023-03-19T11:50:59;12.50;99.90
19862;DHT22;10093;48.148;8.542;2023-03-19T11:56:58;13.30;99.90
19862;DHT22;10093;48.148;8.542;2023-03-19T11:59:52;13.60;99.90
19862;DHT22;10093;48.148;8.542;2023-03-19T12:05:18;13.80;99.90
19862;DHT22;10093;48.148;8.542;2023-03-19T12:19:53;14.00;99.90
19862;DHT22;10093;48.148;8.542;2023-03-19T12:27:54;15.20;99.90
19862;DHT22;10093;48.148;8.542;2023-03-19T12:30:42;15.70;99.90
19862;DHT22;10093;48.148;8.542;2023-03-19T12:36:03;15.40;99.90
19862;DHT22;10093;48.148;8.542;2023-03-19T12:38:42;15.00;99.90
19862;DHT22;10093;48.148;8.542;2023-03-19T12:41:23;15.00;99.90
19862;DHT22;10093;48.148;8.542;2023-03-19T12:46:32;15.20;99.90
19862;DHT22;10093;48.148;8.542;2023-03-19T12:49:13;15.30;99.90
19862;DHT22;10093;48.148;8.542;2023-03-19T12:51:43;15.90;99.90
19862;DHT22;10093;48.148;8.542;2023-03-19T12:54:23;16.30;99.90
19862;DHT22;10093;48.148;8.542;2023-03-19T13:02:40;15.40;99.90
19862;DHT22;10093;48.148;8.542;2023-03-19T13:10:20;14.70;99.90
19862;DHT22;10093;48.148;8.542;2023-03-19T13:12:49;14.50;99.90
19862;DHT22;10093;48.148;8.542;2023-03-19T13:23:24;13.80;99.90
19862;DHT22;10093;48.148;8.542;2023-03-19T13:25:55;14.00;99.90
19862;DHT22;10093;48.148;8.542;2023-03-19T13:28:29;14.10;99.90
19862;DHT22;10093;48.148;8.542;2023-03-19T13:31:18;14.10;99.90
19862;DHT22;10093;48.148;8.542;2023-03-19T13:36:51;13.80;99.90
19862;DHT22;10093;48.148;8.542;2023-03-19T13:39:26;14.10;99.90
19862;DHT22;10093;48.148;8.542;2023-03-19T13:42:07;14.10;99.90
19862;DHT22;10093;48.148;8.542;2023-03-19T13:44:42;14.00;99.90
19862;DHT22;10093;48.148;8.542;2023-03-19T13:56:05;13.60;99.90
19862;DHT22;10093;48.148;8.542;2023-03-19T13:58:46;13.60;99.90
19862;DHT22;10093;48.148;8.542;2023-03-19T14:04:03;13.60;99.90
19862;DHT22;10093;48.148;8.542;2023-03-19T14:08:59;13.60;99.90
19862;DHT22;10093;48.148;8.542;2023-03-19T14:11:35;13.40;99.90
19862;DHT22;10093;48.148;8.542;2023-03-19T14:14:05;13.50;99.90
19862;DHT22;10093;48.148;8.542;2023-03-19T14:16:37;13.60;99.90
19862;DHT22;10093;48.148;8.542;2023-03-19T14:19:11;13.70;99.90
19862;DHT22;10093;48.148;8.542;2023-03-19T14:21:41;13.70;99.90
19862;DHT22;10093;48.148;8.542;2023-03-19T14:27:16;13.30;99.90
19862;DHT22;10093;48.148;8.542;2023-03-19T14:29:43;13.30;99.90
19862;DHT22;10093;48.148;8.542;2023-03-19T14:32:15;13.40;99.90
19862;DHT22;10093;48.148;8.542;2023-03-19T14:34:43;13.50;99.90
19862;DHT22;10093;48.148;8.542;2023-03-19T14:40:15;13.40;99.90
19862;DHT22;10093;48.148;8.542;2023-03-19T14:48:24;12.90;99.90
19862;DHT22;10093;48.148;8.542;2023-03-19T14:51:21;12.90;99.90
19862;DHT22;10093;48.148;8.542;2023-03-19T14:54:22;12.80;99.90
19862;DHT22;10093;48.148;8.542;2023-03-19T14:56:50;12.80;99.90
19862;DHT22;10093;48.148;8.542;2023-03-19T14:59:16;12.90;99.90
19862;DHT22;10093;48.148;8.542;2023-03-19T15:01:48;12.80;99.90
19862;DHT22;10093;48.148;8.542;2023-03-19T15:04:16;12.90;99.90
19862;DHT22;10093;48.148;8.542;2023-03-19T15:06:50;13.10;99.90
19862;DHT22;10093;48.148;8.542;2023-03-19T15:09:28;13.30;99.90
19862;DHT22;10093;48.148;8.542;2023-03-19T15:17:30;13.30;99.90
19862;DHT22;10093;48.148;8.542;2023-03-19T15:20:00;13.20;99.90
19862;DHT22;10093;48.148;8.542;2023-03-19T15:22:32;12.90;99.90
19862;DHT22;10093;48.148;8.542;2023-03-19T15:25:10;12.90;99.90
19862;DHT22;10093;48.148;8.542;2023-03-19T15:27:36;12.90;99.90
19862;DHT22;10093;48.148;8.542;2023-03-19T15:30:17;12.80;99.90
19862;DHT22;10093;48.148;8.542;2023-03-19T15:32:43;12.70;99.90
19862;DHT22;10093;48.148;8.542;2023-03-19T15:35:08;12.60;99.90
19862;DHT22;10093;48.148;8.542;2023-03-19T15:37:47;12.50;99.90
19862;DHT22;10093;48.148;8.542;2023-03-19T15:40:16;12.40;99.90
19862;DHT22;10093;48.148;8.542;2023-03-19T15:42:46;12.30;99.90
19862;DHT22;10093;48.148;8.542;2023-03-19T15:45:15;12.10;99.90
19862;DHT22;10093;48.148;8.542;2023-03-19T15:50:19;12.10;99.90
19862;DHT22;10093;48.148;8.542;2023-03-19T15:52:51;12.10;99.90
19862;DHT22;10093;48.148;8.542;2023-03-19T15:55:18;12.20;99.90
19862;DHT22;10093;48.148;8.542;2023-03-19T15:57:46;12.10;99.90
19862;DHT22;10093;48.148;8.542;2023-03-19T16:00:13;12.00;99.90
19862;DHT22;10093;48.148;8.542;2023-03-19T16:02:41;12.00;99.90
19862;DHT22;10093;48.148;8.542;2023-03-19T16:05:25;12.00;99.90
19862;DHT22;10093;48.148;8.542;2023-03-19T16:08:06;11.90;99.90
19862;DHT22;10093;48.148;8.542;2023-03-19T16:13:00;11.50;99.90
19862;DHT22;10093;48.148;8.542;2023-03-19T16:15:36;11.20;99.90
19862;DHT22;10093;48.148;8.542;2023-03-19T16:20:56;10.70;99.90
19862;DHT22;10093;48.148;8.542;2023-03-19T16:23:29;10.10;99.90
19862;DHT22;10093;48.148;8.542;2023-03-19T16:25:56;9.50;99.90
19862;DHT22;10093;48.148;8.542;2023-03-19T16:28:22;9.10;99.90
19862;DHT22;10093;48.148;8.542;2023-03-19T16:30:49;8.80;99.90
19862;DHT22;10093;48.148;8.542;2023-03-19T16:33:15;8.60;99.90
19862;DHT22;10093;48.148;8.542;2023-03-19T16:35:42;8.50;99.90
19862;DHT22;10093;48.148;8.542;2023-03-19T16:38:17;8.30;99.90
19862;DHT22;10093;48.148;8.542;2023-03-19T16:40:46;8.10;99.90
19862;DHT22;10093;48.148;8.542;2023-03-19T16:43:18;8.00;99.90
19862;DHT22;10093;48.148;8.542;2023-03-19T16:45:49;8.00;99.90
19862;DHT22;10093;48.148;8.542;2023-03-19T16:48:14;8.00;99.90
19862;DHT22;10093;48.148;8.542;2023-03-19T16:50:41;7.90;99.90
19862;DHT22;10093;48.148;8.542;2023-03-19T16:53:38;7.80;99.90
19862;DHT22;10093;48.148;8.542;2023-03-19T16:56:04;7.80;99.90
19862;DHT22;10093;48.148;8.542;2023-03-19T16:58:40;7.80;99.90
19862;DHT22;10093;48.148;8.542;2023-03-19T17:01:23;8.00;99.90
19862;DHT22;10093;48.148;8.542;2023-03-19T17:03:50;7.90;99.90
19862;DHT22;10093;48.148;8.542;2023-03-19T17:06:16;7.70;99.90
19862;DHT22;10093;48.148;8.542;2023-03-19T17:08:43;7.70;99.90
19862;DHT22;10093;48.148;8.542;2023-03-19T17:13:51;7.60;99.90
19862;DHT22;10093;48.148;8.542;2023-03-19T17:16:17;7.60;99.90
19862;DHT22;10093;48.148;8.542;2023-03-19T17:18:43;7.60;99.90
19862;DHT22;10093;48.148;8.542;2023-03-19T17:21:24;7.70;99.90
19862;DHT22;10093;48.148;8.542;2023-03-19T17:23:51;7.70;99.90
19862;DHT22;10093;48.148;8.542;2023-03-19T17:26:25;7.70;99.90
19862;DHT22;10093;48.148;8.542;2023-03-19T17:28:51;7.60;99.90
19862;DHT22;10093;48.148;8.542;2023-03-19T17:33:43;7.50;99.90
19862;DHT22;10093;48.148;8.542;2023-03-19T17:36:09;7.50;99.90
19862;DHT22;10093;48.148;8.542;2023-03-19T17:38:35;7.50;99.90
19862;DHT22;10093;48.148;8.542;2023-03-19T17:41:04;7.50;99.90
19862;DHT22;10093;48.148;8.542;2023-03-19T17:43:33;7.60;99.90
19862;DHT22;10093;48.148;8.542;2023-03-19T17:45:59;7.70;99.90
19862;DHT22;10093;48.148;8.542;2023-03-19T17:48:25;7.80;99.90
19862;DHT22;10093;48.148;8.542;2023-03-19T17:50:53;7.80;99.90
19862;DHT22;10093;48.148;8.542;2023-03-19T17:53:22;7.90;99.90
19862;DHT22;10093;48.148;8.542;2023-03-19T17:55:47;7.90;99.90
19862;DHT22;10093;48.148;8.542;2023-03-19T17:58:18;7.80;99.90
19862;DHT22;10093;48.148;8.542;2023-03-19T18:00:46;7.80;99.90
19862;DHT22;10093;48.148;8.542;2023-03-19T18:03:18;7.70;99.90
19862;DHT22;10093;48.148;8.542;2023-03-19T18:05:44;7.50;99.90
19862;DHT22;10093;48.148;8.542;2023-03-19T18:08:13;7.50;99.90
19862;DHT22;10093;48.148;8.542;2023-03-19T18:10:40;7.40;99.90
19862;DHT22;10093;48.148;8.542;2023-03-19T18:13:06;7.30;99.90